sensor_id;sensor_type;location;lat;lon;timestamp;P1;durP1;ratioP1;P2;durP2;ratioP2
2720;SDS011;1368;49.484;11.112;2022-10-31T00:01:32;27.83;;;20.60;;
2720;SDS011;1368;49.484;11.112;2022-10-31T00:04:00;31.43;;;22.27;;
2720;SDS011;1368;49.484;11.112;2022-10-31T00:06:25;39.13;;;24.60;;
2720;SDS011;1368;49.484;11.112;2022-10-31T00:08:55;36.80;;;22.77;;
2720;SDS011;1368;49.484;11.112;2022-10-31T00:11:22;31.43;;;24.20;;
2720;SDS011;1368;49.484;11.112;2022-10-31T00:13:48;37.90;;;26.90;;
2720;SDS011;1368;49.484;11.112;2022-10-31T00:16:23;35.87;;;24.63;;
2720;SDS011;1368;49.484;11.112;2022-10-31T00:18:53;36.13;;;22.57;;
2720;SDS011;1368;49.484;11.112;2022-10-31T00:21:21;38.03;;;22.37;;
2720;SDS011;1368;49.484;11.112;2022-10-31T00:23:47;35.67;;;24.37;;
2720;SDS011;1368;49.484;11.112;2022-10-31T00:26:13;30.90;;;20.87;;
2720;SDS011;1368;49.484;11.112;2022-10-31T00:28:39;32.67;;;22.70;;
2720;SDS011;1368;49.484;11.112;2022-10-31T00:31:06;29.53;;;21.07;;
2720;SDS011;1368;49.484;11.112;2022-10-31T00:33:36;33.73;;;22.73;;
2720;SDS011;1368;49.484;11.112;2022-10-31T00:36:03;29.33;;;20.40;;
2720;SDS011;1368;49.484;11.112;2022-10-31T00:38:30;35.07;;;21.43;;
2720;SDS011;1368;49.484;11.112;2022-10-31T00:40:56;33.80;;;19.93;;
2720;SDS011;1368;49.484;11.112;2022-10-31T00:43:21;33.63;;;21.23;;
2720;SDS011;1368;49.484;11.112;2022-10-31T00:45:47;26.77;;;18.33;;
2720;SDS011;1368;49.484;11.112;2022-10-31T00:48:13;35.63;;;20.87;;
2720;SDS011;1368;49.484;11.112;2022-10-31T00:50:38;29.27;;;21.90;;
2720;SDS011;1368;49.484;11.112;2022-10-31T00:53:04;31.87;;;22.90;;
2720;SDS011;1368;49.484;11.112;2022-10-31T00:55:30;33.33;;;21.40;;
2720;SDS011;1368;49.484;11.112;2022-10-31T00:57:56;31.40;;;17.77;;
2720;SDS011;1368;49.484;11.112;2022-10-31T01:00:22;30.23;;;18.90;;
2720;SDS011;1368;49.484;11.112;2022-10-31T01:02:47;31.20;;;20.50;;
2720;SDS011;1368;49.484;11.112;2022-10-31T01:05:13;32.27;;;19.87;;
2720;SDS011;1368;49.484;11.112;2022-10-31T01:07:39;30.43;;;20.37;;
2720;SDS011;1368;49.484;11.112;2022-10-31T01:10:06;27.37;;;21.07;;
2720;SDS011;1368;49.484;11.112;2022-10-31T01:12:42;27.40;;;19.27;;
2720;SDS011;1368;49.484;11.112;2022-10-31T01:15:10;29.60;;;19.90;;
2720;SDS011;1368;49.484;11.112;2022-10-31T01:17:37;29.23;;;20.50;;
2720;SDS011;1368;49.484;11.112;2022-10-31T01:20:04;33.17;;;20.03;;
2720;SDS011;1368;49.484;11.112;2022-10-31T01:22:30;28.63;;;21.50;;
2720;SDS011;1368;49.484;11.112;2022-10-31T01:24:56;30.57;;;17.60;;
2720;SDS011;1368;49.484;11.112;2022-10-31T01:27:21;27.63;;;18.10;;
2720;SDS011;1368;49.484;11.112;2022-10-31T01:29:47;32.80;;;20.40;;
2720;SDS011;1368;49.484;11.112;2022-10-31T01:32:12;33.77;;;21.50;;
2720;SDS011;1368;49.484;11.112;2022-10-31T01:34:38;34.63;;;21.10;;
2720;SDS011;1368;49.484;11.112;2022-10-31T01:37:03;34.23;;;22.70;;
2720;SDS011;1368;49.484;11.112;2022-10-31T01:39:29;40.27;;;20.87;;
2720;SDS011;1368;49.484;11.112;2022-10-31T01:41:54;32.63;;;21.73;;
2720;SDS011;1368;49.484;11.112;2022-10-31T01:49:23;31.87;;;20.17;;
2720;SDS011;1368;49.484;11.112;2022-10-31T01:52:00;35.43;;;22.83;;
2720;SDS011;1368;49.484;11.112;2022-10-31T01:54:32;33.80;;;23.27;;
2720;SDS011;1368;49.484;11.112;2022-10-31T01:57:03;29.80;;;22.27;;
2720;SDS011;1368;49.484;11.112;2022-10-31T01:59:30;34.47;;;22.27;;
2720;SDS011;1368;49.484;11.112;2022-10-31T02:01:59;25.23;;;19.50;;
2720;SDS011;1368;49.484;11.112;2022-10-31T02:04:25;35.07;;;22.90;;
2720;SDS011;1368;49.484;11.112;2022-10-31T02:06:56;33.17;;;22.57;;
2720;SDS011;1368;49.484;11.112;2022-10-31T02:09:27;29.53;;;20.77;;
2720;SDS011;1368;49.484;11.112;2022-10-31T02:11:56;28.80;;;20.33;;
2720;SDS011;1368;49.484;11.112;2022-10-31T02:14:24;30.27;;;21.60;;
2720;SDS011;1368;49.484;11.112;2022-10-31T02:16:55;38.80;;;24.20;;
2720;SDS011;1368;49.484;11.112;2022-10-31T02:19:26;22.77;;;15.17;;
2720;SDS011;1368;49.484;11.112;2022-10-31T02:22:16;24.17;;;17.03;;
2720;SDS011;1368;49.484;11.112;2022-10-31T02:33:30;32.10;;;20.70;;
2720;SDS011;1368;49.484;11.112;2022-10-31T02:36:11;28.70;;;19.60;;
2720;SDS011;1368;49.484;11.112;2022-10-31T02:49:16;32.97;;;20.60;;
2720;SDS011;1368;49.484;11.112;2022-10-31T02:51:57;30.80;;;19.87;;
2720;SDS011;1368;49.484;11.112;2022-10-31T02:54:23;36.13;;;20.33;;
2720;SDS011;1368;49.484;11.112;2022-10-31T02:56:52;22.90;;;17.13;;
2720;SDS011;1368;49.484;11.112;2022-10-31T02:59:24;31.60;;;18.23;;
2720;SDS011;1368;49.484;11.112;2022-10-31T03:12:30;32.53;;;21.50;;
2720;SDS011;1368;49.484;11.112;2022-10-31T03:15:23;28.40;;;18.17;;
2720;SDS011;1368;49.484;11.112;2022-10-31T03:17:59;29.53;;;20.20;;
2720;SDS011;1368;49.484;11.112;2022-10-31T03:20:39;29.97;;;18.93;;
2720;SDS011;1368;49.484;11.112;2022-10-31T03:23:11;38.47;;;22.27;;
2720;SDS011;1368;49.484;11.112;2022-10-31T03:25:39;31.60;;;20.67;;
2720;SDS011;1368;49.484;11.112;2022-10-31T03:28:06;29.87;;;20.50;;
2720;SDS011;1368;49.484;11.112;2022-10-31T03:30:35;31.90;;;17.53;;
2720;SDS011;1368;49.484;11.112;2022-10-31T03:33:04;28.50;;;18.07;;
2720;SDS011;1368;49.484;11.112;2022-10-31T03:35:33;33.77;;;18.53;;
2720;SDS011;1368;49.484;11.112;2022-10-31T03:38:01;32.23;;;20.43;;
2720;SDS011;1368;49.484;11.112;2022-10-31T03:40:28;26.80;;;18.00;;
2720;SDS011;1368;49.484;11.112;2022-10-31T03:42:58;28.10;;;20.23;;
2720;SDS011;1368;49.484;11.112;2022-10-31T03:45:27;28.70;;;20.30;;
2720;SDS011;1368;49.484;11.112;2022-10-31T03:47:55;29.03;;;19.50;;
2720;SDS011;1368;49.484;11.112;2022-10-31T03:50:23;25.13;;;20.27;;
2720;SDS011;1368;49.484;11.112;2022-10-31T03:53:04;29.87;;;21.73;;
2720;SDS011;1368;49.484;11.112;2022-10-31T03:58:06;32.30;;;19.73;;
2720;SDS011;1368;49.484;11.112;2022-10-31T04:00:36;25.23;;;19.20;;
2720;SDS011;1368;49.484;11.112;2022-10-31T04:03:14;24.00;;;18.63;;
2720;SDS011;1368;49.484;11.112;2022-10-31T04:05:45;33.93;;;22.40;;
2720;SDS011;1368;49.484;11.112;2022-10-31T04:08:14;27.30;;;18.90;;
2720;SDS011;1368;49.484;11.112;2022-10-31T04:10:42;31.27;;;20.73;;
2720;SDS011;1368;49.484;11.112;2022-10-31T04:13:13;23.40;;;19.03;;
2720;SDS011;1368;49.484;11.112;2022-10-31T04:15:44;28.80;;;19.77;;
2720;SDS011;1368;49.484;11.112;2022-10-31T04:18:10;28.93;;;18.60;;
2720;SDS011;1368;49.484;11.112;2022-10-31T04:20:37;31.50;;;19.23;;
2720;SDS011;1368;49.484;11.112;2022-10-31T04:23:04;29.40;;;17.60;;
2720;SDS011;1368;49.484;11.112;2022-10-31T04:25:36;28.13;;;18.60;;
2720;SDS011;1368;49.484;11.112;2022-10-31T04:28:01;26.00;;;16.13;;
2720;SDS011;1368;49.484;11.112;2022-10-31T04:30:27;24.33;;;15.73;;
2720;SDS011;1368;49.484;11.112;2022-10-31T04:32:52;25.10;;;16.67;;
2720;SDS011;1368;49.484;11.112;2022-10-31T04:35:18;31.00;;;18.63;;
2720;SDS011;1368;49.484;11.112;2022-10-31T04:37:44;23.40;;;16.40;;
2720;SDS011;1368;49.484;11.112;2022-10-31T04:40:09;30.70;;;18.40;;
2720;SDS011;1368;49.484;11.112;2022-10-31T04:42:35;30.70;;;19.27;;
2720;SDS011;1368;49.484;11.112;2022-10-31T04:45:01;34.13;;;19.50;;
2720;SDS011;1368;49.484;11.112;2022-10-31T04:47:26;28.93;;;17.67;;
2720;SDS011;1368;49.484;11.112;2022-10-31T04:49:52;25.30;;;17.30;;
2720;SDS011;1368;49.484;11.112;2022-10-31T04:52:17;27.03;;;16.50;;
2720;SDS011;1368;49.484;11.112;2022-10-31T04:54:43;22.83;;;16.77;;
2720;SDS011;1368;49.484;11.112;2022-10-31T04:57:08;25.67;;;19.80;;
2720;SDS011;1368;49.484;11.112;2022-10-31T04:59:34;24.13;;;18.43;;
2720;SDS011;1368;49.484;11.112;2022-10-31T05:01:59;27.97;;;18.20;;
2720;SDS011;1368;49.484;11.112;2022-10-31T05:04:25;28.37;;;17.60;;
2720;SDS011;1368;49.484;11.112;2022-10-31T05:06:50;26.67;;;18.07;;
2720;SDS011;1368;49.484;11.112;2022-10-31T05:09:16;29.50;;;18.50;;
2720;SDS011;1368;49.484;11.112;2022-10-31T05:11:42;26.77;;;17.07;;
2720;SDS011;1368;49.484;11.112;2022-10-31T05:14:07;29.70;;;19.60;;
2720;SDS011;1368;49.484;11.112;2022-10-31T05:16:33;21.90;;;15.97;;
2720;SDS011;1368;49.484;11.112;2022-10-31T05:18:58;24.87;;;16.73;;
2720;SDS011;1368;49.484;11.112;2022-10-31T05:21:24;25.97;;;17.83;;
2720;SDS011;1368;49.484;11.112;2022-10-31T05:23:49;30.13;;;18.93;;
2720;SDS011;1368;49.484;11.112;2022-10-31T05:26:15;28.13;;;17.33;;
2720;SDS011;1368;49.484;11.112;2022-10-31T05:28:40;29.77;;;17.83;;
2720;SDS011;1368;49.484;11.112;2022-10-31T05:31:06;29.53;;;18.13;;
2720;SDS011;1368;49.484;11.112;2022-10-31T05:33:31;27.30;;;17.73;;
2720;SDS011;1368;49.484;11.112;2022-10-31T05:35:57;30.70;;;16.73;;
2720;SDS011;1368;49.484;11.112;2022-10-31T05:38:22;31.50;;;19.73;;
2720;SDS011;1368;49.484;11.112;2022-10-31T05:40:48;24.43;;;17.70;;
2720;SDS011;1368;49.484;11.112;2022-10-31T05:43:14;24.23;;;17.67;;
2720;SDS011;1368;49.484;11.112;2022-10-31T05:45:39;32.97;;;19.27;;
2720;SDS011;1368;49.484;11.112;2022-10-31T05:48:05;26.63;;;18.77;;
2720;SDS011;1368;49.484;11.112;2022-10-31T05:50:30;26.63;;;18.00;;
2720;SDS011;1368;49.484;11.112;2022-10-31T05:52:57;22.80;;;15.47;;
2720;SDS011;1368;49.484;11.112;2022-10-31T05:55:25;31.67;;;17.90;;
2720;SDS011;1368;49.484;11.112;2022-10-31T05:57:52;24.03;;;18.30;;
2720;SDS011;1368;49.484;11.112;2022-10-31T06:00:18;29.03;;;19.63;;
2720;SDS011;1368;49.484;11.112;2022-10-31T06:02:44;26.77;;;19.70;;
2720;SDS011;1368;49.484;11.112;2022-10-31T06:05:10;22.40;;;16.20;;
2720;SDS011;1368;49.484;11.112;2022-10-31T06:07:36;26.30;;;18.07;;
2720;SDS011;1368;49.484;11.112;2022-10-31T06:10:03;21.40;;;14.77;;
2720;SDS011;1368;49.484;11.112;2022-10-31T06:12:29;20.57;;;15.73;;
2720;SDS011;1368;49.484;11.112;2022-10-31T06:14:55;23.03;;;15.20;;
2720;SDS011;1368;49.484;11.112;2022-10-31T06:17:21;19.63;;;15.27;;
2720;SDS011;1368;49.484;11.112;2022-10-31T06:19:46;19.83;;;15.00;;
2720;SDS011;1368;49.484;11.112;2022-10-31T06:22:12;22.47;;;16.43;;
2720;SDS011;1368;49.484;11.112;2022-10-31T06:24:38;26.03;;;15.93;;
2720;SDS011;1368;49.484;11.112;2022-10-31T06:27:04;25.23;;;15.40;;
2720;SDS011;1368;49.484;11.112;2022-10-31T06:29:29;24.43;;;16.30;;
2720;SDS011;1368;49.484;11.112;2022-10-31T06:31:55;21.77;;;16.50;;
2720;SDS011;1368;49.484;11.112;2022-10-31T06:34:21;22.17;;;14.80;;
2720;SDS011;1368;49.484;11.112;2022-10-31T06:36:46;22.77;;;15.70;;
2720;SDS011;1368;49.484;11.112;2022-10-31T06:39:12;21.90;;;16.00;;
2720;SDS011;1368;49.484;11.112;2022-10-31T06:41:38;29.80;;;16.33;;
2720;SDS011;1368;49.484;11.112;2022-10-31T06:44:05;17.07;;;13.00;;
2720;SDS011;1368;49.484;11.112;2022-10-31T06:46:31;24.23;;;15.30;;
2720;SDS011;1368;49.484;11.112;2022-10-31T06:48:57;23.27;;;15.13;;
2720;SDS011;1368;49.484;11.112;2022-10-31T06:51:22;22.67;;;15.23;;
2720;SDS011;1368;49.484;11.112;2022-10-31T06:53:48;25.77;;;15.87;;
2720;SDS011;1368;49.484;11.112;2022-10-31T06:56:13;18.00;;;13.23;;
2720;SDS011;1368;49.484;11.112;2022-10-31T06:58:39;16.57;;;12.40;;
2720;SDS011;1368;49.484;11.112;2022-10-31T07:01:05;18.57;;;13.27;;
2720;SDS011;1368;49.484;11.112;2022-10-31T07:03:30;19.23;;;13.30;;
2720;SDS011;1368;49.484;11.112;2022-10-31T07:05:56;20.13;;;14.30;;
2720;SDS011;1368;49.484;11.112;2022-10-31T07:08:22;23.53;;;14.37;;
2720;SDS011;1368;49.484;11.112;2022-10-31T07:10:55;16.77;;;12.50;;
2720;SDS011;1368;49.484;11.112;2022-10-31T07:13:22;16.07;;;11.27;;
2720;SDS011;1368;49.484;11.112;2022-10-31T07:15:52;20.30;;;11.27;;
2720;SDS011;1368;49.484;11.112;2022-10-31T07:18:19;17.27;;;11.77;;
2720;SDS011;1368;49.484;11.112;2022-10-31T07:20:45;23.80;;;11.63;;
2720;SDS011;1368;49.484;11.112;2022-10-31T07:23:11;22.53;;;12.30;;
2720;SDS011;1368;49.484;11.112;2022-10-31T07:25:38;15.07;;;11.47;;
2720;SDS011;1368;49.484;11.112;2022-10-31T07:28:04;18.20;;;9.73;;
2720;SDS011;1368;49.484;11.112;2022-10-31T07:30:30;12.50;;;10.43;;
2720;SDS011;1368;49.484;11.112;2022-10-31T07:32:55;15.03;;;10.47;;
2720;SDS011;1368;49.484;11.112;2022-10-31T07:35:22;13.50;;;10.23;;
2720;SDS011;1368;49.484;11.112;2022-10-31T07:37:50;19.50;;;9.93;;
2720;SDS011;1368;49.484;11.112;2022-10-31T07:40:16;11.83;;;8.33;;
2720;SDS011;1368;49.484;11.112;2022-10-31T07:42:43;17.20;;;10.00;;
2720;SDS011;1368;49.484;11.112;2022-10-31T07:45:11;12.47;;;8.87;;
2720;SDS011;1368;49.484;11.112;2022-10-31T07:47:39;14.30;;;8.90;;
2720;SDS011;1368;49.484;11.112;2022-10-31T07:50:05;11.90;;;9.90;;
2720;SDS011;1368;49.484;11.112;2022-10-31T07:52:31;11.90;;;9.10;;
2720;SDS011;1368;49.484;11.112;2022-10-31T07:54:57;12.60;;;8.57;;
2720;SDS011;1368;49.484;11.112;2022-10-31T07:57:22;13.53;;;10.67;;
2720;SDS011;1368;49.484;11.112;2022-10-31T07:59:48;11.63;;;8.23;;
2720;SDS011;1368;49.484;11.112;2022-10-31T08:02:13;11.60;;;8.70;;
2720;SDS011;1368;49.484;11.112;2022-10-31T08:04:39;11.53;;;8.13;;
2720;SDS011;1368;49.484;11.112;2022-10-31T08:07:05;15.97;;;9.27;;
2720;SDS011;1368;49.484;11.112;2022-10-31T08:09:30;13.70;;;9.33;;
2720;SDS011;1368;49.484;11.112;2022-10-31T08:11:56;10.37;;;7.77;;
2720;SDS011;1368;49.484;11.112;2022-10-31T08:14:21;13.70;;;9.77;;
2720;SDS011;1368;49.484;11.112;2022-10-31T08:16:47;11.13;;;8.83;;
2720;SDS011;1368;49.484;11.112;2022-10-31T08:19:13;10.93;;;9.00;;
2720;SDS011;1368;49.484;11.112;2022-10-31T08:21:38;15.13;;;9.70;;
2720;SDS011;1368;49.484;11.112;2022-10-31T08:24:04;13.87;;;9.53;;
2720;SDS011;1368;49.484;11.112;2022-10-31T08:26:30;14.37;;;10.20;;
2720;SDS011;1368;49.484;11.112;2022-10-31T08:28:56;14.13;;;10.07;;
2720;SDS011;1368;49.484;11.112;2022-10-31T08:31:22;14.03;;;9.97;;
2720;SDS011;1368;49.484;11.112;2022-10-31T08:33:48;14.10;;;10.10;;
2720;SDS011;1368;49.484;11.112;2022-10-31T08:36:14;16.63;;;10.20;;
2720;SDS011;1368;49.484;11.112;2022-10-31T08:38:39;13.97;;;10.17;;
2720;SDS011;1368;49.484;11.112;2022-10-31T08:41:05;14.13;;;9.97;;
2720;SDS011;1368;49.484;11.112;2022-10-31T08:43:30;12.73;;;10.10;;
2720;SDS011;1368;49.484;11.112;2022-10-31T08:45:56;14.87;;;10.00;;
2720;SDS011;1368;49.484;11.112;2022-10-31T08:48:21;13.00;;;10.47;;
2720;SDS011;1368;49.484;11.112;2022-10-31T08:50:47;21.73;;;12.23;;
2720;SDS011;1368;49.484;11.112;2022-10-31T08:53:16;20.17;;;12.00;;
2720;SDS011;1368;49.484;11.112;2022-10-31T08:55:44;22.70;;;13.03;;
2720;SDS011;1368;49.484;11.112;2022-10-31T08:58:11;17.10;;;12.30;;
2720;SDS011;1368;49.484;11.112;2022-10-31T09:00:39;13.50;;;10.60;;
2720;SDS011;1368;49.484;11.112;2022-10-31T09:03:06;14.20;;;11.50;;
2720;SDS011;1368;49.484;11.112;2022-10-31T09:05:35;13.50;;;10.90;;
2720;SDS011;1368;49.484;11.112;2022-10-31T09:08:01;17.37;;;11.80;;
2720;SDS011;1368;49.484;11.112;2022-10-31T09:10:29;17.17;;;11.80;;
2720;SDS011;1368;49.484;11.112;2022-10-31T09:12:56;14.30;;;11.00;;
2720;SDS011;1368;49.484;11.112;2022-10-31T09:15:26;17.67;;;11.90;;
2720;SDS011;1368;49.484;11.112;2022-10-31T09:17:52;19.23;;;11.77;;
2720;SDS011;1368;49.484;11.112;2022-10-31T09:20:18;18.63;;;13.27;;
2720;SDS011;1368;49.484;11.112;2022-10-31T09:22:45;21.43;;;13.33;;
2720;SDS011;1368;49.484;11.112;2022-10-31T09:25:11;20.27;;;13.23;;
2720;SDS011;1368;49.484;11.112;2022-10-31T09:27:37;15.53;;;11.70;;
2720;SDS011;1368;49.484;11.112;2022-10-31T09:30:03;17.30;;;11.97;;
2720;SDS011;1368;49.484;11.112;2022-10-31T09:32:29;17.00;;;12.47;;
2720;SDS011;1368;49.484;11.112;2022-10-31T09:34:54;21.70;;;13.90;;
2720;SDS011;1368;49.484;11.112;2022-10-31T09:37:20;23.43;;;15.50;;
2720;SDS011;1368;49.484;11.112;2022-10-31T09:39:45;17.73;;;12.20;;
2720;SDS011;1368;49.484;11.112;2022-10-31T09:50:37;19.10;;;13.20;;
2720;SDS011;1368;49.484;11.112;2022-10-31T09:54:06;16.10;;;11.60;;
2720;SDS011;1368;49.484;11.112;2022-10-31T09:56:17;19.57;;;12.93;;
2720;SDS011;1368;49.484;11.112;2022-10-31T09:58:45;20.87;;;13.07;;
2720;SDS011;1368;49.484;11.112;2022-10-31T10:04:00;19.87;;;12.67;;
2720;SDS011;1368;49.484;11.112;2022-10-31T10:06:54;14.07;;;11.33;;
2720;SDS011;1368;49.484;11.112;2022-10-31T10:09:21;17.83;;;12.50;;
2720;SDS011;1368;49.484;11.112;2022-10-31T10:14:48;21.03;;;13.10;;
2720;SDS011;1368;49.484;11.112;2022-10-31T10:17:38;19.33;;;11.80;;
2720;SDS011;1368;49.484;11.112;2022-10-31T10:20:41;15.40;;;10.90;;
2720;SDS011;1368;49.484;11.112;2022-10-31T10:26:17;18.83;;;10.63;;
2720;SDS011;1368;49.484;11.112;2022-10-31T10:28:45;16.30;;;10.10;;
2720;SDS011;1368;49.484;11.112;2022-10-31T10:31:16;16.43;;;10.77;;
2720;SDS011;1368;49.484;11.112;2022-10-31T10:36:18;15.70;;;9.77;;
2720;SDS011;1368;49.484;11.112;2022-10-31T10:38:52;14.90;;;10.40;;
2720;SDS011;1368;49.484;11.112;2022-10-31T10:41:23;25.00;;;11.00;;
2720;SDS011;1368;49.484;11.112;2022-10-31T10:43:52;15.00;;;10.43;;
2720;SDS011;1368;49.484;11.112;2022-10-31T10:59:36;15.10;;;10.90;;
2720;SDS011;1368;49.484;11.112;2022-10-31T11:02:02;13.30;;;9.90;;
2720;SDS011;1368;49.484;11.112;2022-10-31T11:04:33;15.27;;;9.87;;
2720;SDS011;1368;49.484;11.112;2022-10-31T11:07:04;15.97;;;10.60;;
2720;SDS011;1368;49.484;11.112;2022-10-31T11:09:32;18.53;;;9.30;;
2720;SDS011;1368;49.484;11.112;2022-10-31T11:11:58;16.50;;;10.00;;
2720;SDS011;1368;49.484;11.112;2022-10-31T11:14:25;12.67;;;10.53;;
2720;SDS011;1368;49.484;11.112;2022-10-31T11:17:06;21.60;;;10.43;;
2720;SDS011;1368;49.484;11.112;2022-10-31T11:19:36;17.07;;;10.23;;
2720;SDS011;1368;49.484;11.112;2022-10-31T11:22:05;16.97;;;10.10;;
2720;SDS011;1368;49.484;11.112;2022-10-31T11:24:36;14.93;;;10.13;;
2720;SDS011;1368;49.484;11.112;2022-10-31T11:27:21;13.70;;;10.60;;
2720;SDS011;1368;49.484;11.112;2022-10-31T11:29:49;13.27;;;10.10;;
2720;SDS011;1368;49.484;11.112;2022-10-31T11:32:19;16.00;;;10.57;;
2720;SDS011;1368;49.484;11.112;2022-10-31T11:34:51;16.47;;;10.23;;
2720;SDS011;1368;49.484;11.112;2022-10-31T11:37:27;19.40;;;11.40;;
2720;SDS011;1368;49.484;11.112;2022-10-31T11:39:55;13.67;;;9.40;;
2720;SDS011;1368;49.484;11.112;2022-10-31T11:42:35;20.60;;;11.47;;
2720;SDS011;1368;49.484;11.112;2022-10-31T11:45:12;20.50;;;10.33;;
2720;SDS011;1368;49.484;11.112;2022-10-31T11:47:46;12.50;;;10.93;;
2720;SDS011;1368;49.484;11.112;2022-10-31T11:50:26;23.40;;;10.37;;
2720;SDS011;1368;49.484;11.112;2022-10-31T11:53:01;11.77;;;9.80;;
2720;SDS011;1368;49.484;11.112;2022-10-31T11:55:36;12.20;;;9.73;;
2720;SDS011;1368;49.484;11.112;2022-10-31T11:58:03;10.63;;;8.47;;
2720;SDS011;1368;49.484;11.112;2022-10-31T12:00:31;12.50;;;9.80;;
2720;SDS011;1368;49.484;11.112;2022-10-31T12:05:39;12.70;;;10.20;;
2720;SDS011;1368;49.484;11.112;2022-10-31T12:08:09;14.80;;;8.30;;
2720;SDS011;1368;49.484;11.112;2022-10-31T12:10:40;12.53;;;9.77;;
2720;SDS011;1368;49.484;11.112;2022-10-31T12:13:33;14.03;;;10.17;;
2720;SDS011;1368;49.484;11.112;2022-10-31T12:16:11;11.60;;;9.23;;
2720;SDS011;1368;49.484;11.112;2022-10-31T12:26:55;12.40;;;9.83;;
2720;SDS011;1368;49.484;11.112;2022-10-31T12:29:47;12.43;;;9.97;;
2720;SDS011;1368;49.484;11.112;2022-10-31T12:32:34;10.27;;;9.23;;
2720;SDS011;1368;49.484;11.112;2022-10-31T12:41:15;16.27;;;10.30;;
2720;SDS011;1368;49.484;11.112;2022-10-31T12:50:19;13.40;;;9.33;;
2720;SDS011;1368;49.484;11.112;2022-10-31T12:52:56;12.73;;;9.37;;
2720;SDS011;1368;49.484;11.112;2022-10-31T12:56:00;11.60;;;9.07;;
2720;SDS011;1368;49.484;11.112;2022-10-31T12:58:46;17.23;;;10.17;;
2720;SDS011;1368;49.484;11.112;2022-10-31T13:01:20;11.63;;;9.30;;
2720;SDS011;1368;49.484;11.112;2022-10-31T13:04:19;15.83;;;10.23;;
2720;SDS011;1368;49.484;11.112;2022-10-31T13:06:54;17.97;;;11.10;;
2720;SDS011;1368;49.484;11.112;2022-10-31T13:09:35;14.83;;;11.03;;
2720;SDS011;1368;49.484;11.112;2022-10-31T13:12:20;16.33;;;10.10;;
2720;SDS011;1368;49.484;11.112;2022-10-31T13:14:54;19.40;;;10.90;;
2720;SDS011;1368;49.484;11.112;2022-10-31T13:17:35;20.07;;;11.23;;
2720;SDS011;1368;49.484;11.112;2022-10-31T13:20:16;16.30;;;11.27;;
2720;SDS011;1368;49.484;11.112;2022-10-31T13:25:53;19.13;;;12.10;;
2720;SDS011;1368;49.484;11.112;2022-10-31T13:31:03;17.67;;;11.20;;
2720;SDS011;1368;49.484;11.112;2022-10-31T13:33:30;16.07;;;11.33;;
2720;SDS011;1368;49.484;11.112;2022-10-31T13:41:36;15.50;;;12.37;;
2720;SDS011;1368;49.484;11.112;2022-10-31T13:44:21;16.27;;;12.80;;
2720;SDS011;1368;49.484;11.112;2022-10-31T13:46:49;16.50;;;12.40;;
2720;SDS011;1368;49.484;11.112;2022-10-31T13:52:28;16.17;;;13.07;;
2720;SDS011;1368;49.484;11.112;2022-10-31T13:54:49;17.67;;;12.80;;
2720;SDS011;1368;49.484;11.112;2022-10-31T13:57:38;21.47;;;12.80;;
2720;SDS011;1368;49.484;11.112;2022-10-31T14:00:22;15.77;;;12.20;;
2720;SDS011;1368;49.484;11.112;2022-10-31T14:02:51;27.83;;;12.13;;
2720;SDS011;1368;49.484;11.112;2022-10-31T14:05:34;13.87;;;11.70;;
2720;SDS011;1368;49.484;11.112;2022-10-31T14:08:01;16.50;;;11.30;;
2720;SDS011;1368;49.484;11.112;2022-10-31T14:10:36;14.30;;;11.23;;
2720;SDS011;1368;49.484;11.112;2022-10-31T14:16:03;20.40;;;11.80;;
2720;SDS011;1368;49.484;11.112;2022-10-31T14:20:58;16.40;;;11.80;;
2720;SDS011;1368;49.484;11.112;2022-10-31T14:28:46;21.00;;;11.90;;
2720;SDS011;1368;49.484;11.112;2022-10-31T14:36:40;15.60;;;12.53;;
2720;SDS011;1368;49.484;11.112;2022-10-31T14:47:15;18.60;;;12.13;;
2720;SDS011;1368;49.484;11.112;2022-10-31T14:50:09;19.13;;;13.27;;
2720;SDS011;1368;49.484;11.112;2022-10-31T14:52:49;21.27;;;13.17;;
2720;SDS011;1368;49.484;11.112;2022-10-31T14:55:17;14.70;;;12.20;;
2720;SDS011;1368;49.484;11.112;2022-10-31T14:57:46;14.77;;;12.10;;
2720;SDS011;1368;49.484;11.112;2022-10-31T15:00:17;16.77;;;13.37;;
2720;SDS011;1368;49.484;11.112;2022-10-31T15:02:54;19.37;;;14.20;;
2720;SDS011;1368;49.484;11.112;2022-10-31T15:05:29;17.17;;;11.87;;
2720;SDS011;1368;49.484;11.112;2022-10-31T15:07:57;17.47;;;12.87;;
2720;SDS011;1368;49.484;11.112;2022-10-31T15:10:26;16.63;;;11.90;;
2720;SDS011;1368;49.484;11.112;2022-10-31T15:13:13;20.77;;;13.50;;
2720;SDS011;1368;49.484;11.112;2022-10-31T15:15:43;24.80;;;13.43;;
2720;SDS011;1368;49.484;11.112;2022-10-31T15:18:13;20.10;;;13.17;;
2720;SDS011;1368;49.484;11.112;2022-10-31T15:20:58;14.80;;;11.90;;
2720;SDS011;1368;49.484;11.112;2022-10-31T15:23:25;25.33;;;15.10;;
2720;SDS011;1368;49.484;11.112;2022-10-31T15:25:59;20.97;;;14.50;;
2720;SDS011;1368;49.484;11.112;2022-10-31T15:28:29;26.10;;;16.90;;
2720;SDS011;1368;49.484;11.112;2022-10-31T15:30:57;23.33;;;17.40;;
2720;SDS011;1368;49.484;11.112;2022-10-31T15:33:28;22.10;;;14.20;;
2720;SDS011;1368;49.484;11.112;2022-10-31T15:36:03;17.20;;;12.83;;
2720;SDS011;1368;49.484;11.112;2022-10-31T15:38:29;22.37;;;13.33;;
2720;SDS011;1368;49.484;11.112;2022-10-31T15:40:56;21.13;;;13.93;;
2720;SDS011;1368;49.484;11.112;2022-10-31T15:43:27;17.20;;;12.03;;
2720;SDS011;1368;49.484;11.112;2022-10-31T15:46:01;23.33;;;13.30;;
2720;SDS011;1368;49.484;11.112;2022-10-31T15:48:27;23.43;;;14.30;;
2720;SDS011;1368;49.484;11.112;2022-10-31T15:50:56;29.90;;;15.00;;
2720;SDS011;1368;49.484;11.112;2022-10-31T15:53:27;24.57;;;16.27;;
2720;SDS011;1368;49.484;11.112;2022-10-31T15:56:02;21.97;;;16.60;;
2720;SDS011;1368;49.484;11.112;2022-10-31T15:58:32;20.93;;;15.70;;
2720;SDS011;1368;49.484;11.112;2022-10-31T16:01:05;22.27;;;16.83;;
2720;SDS011;1368;49.484;11.112;2022-10-31T16:03:43;23.73;;;15.37;;
2720;SDS011;1368;49.484;11.112;2022-10-31T16:06:19;27.90;;;17.40;;
2720;SDS011;1368;49.484;11.112;2022-10-31T16:08:46;26.07;;;15.40;;
2720;SDS011;1368;49.484;11.112;2022-10-31T16:16:32;21.67;;;14.77;;
2720;SDS011;1368;49.484;11.112;2022-10-31T16:18:59;20.07;;;14.50;;
2720;SDS011;1368;49.484;11.112;2022-10-31T16:21:30;19.77;;;16.27;;
2720;SDS011;1368;49.484;11.112;2022-10-31T16:24:00;21.17;;;15.13;;
2720;SDS011;1368;49.484;11.112;2022-10-31T16:26:39;25.73;;;18.67;;
2720;SDS011;1368;49.484;11.112;2022-10-31T16:29:22;45.30;;;29.40;;
2720;SDS011;1368;49.484;11.112;2022-10-31T16:32:26;45.27;;;23.40;;
2720;SDS011;1368;49.484;11.112;2022-10-31T16:37:38;26.90;;;20.17;;
2720;SDS011;1368;49.484;11.112;2022-10-31T16:40:05;34.40;;;20.90;;
2720;SDS011;1368;49.484;11.112;2022-10-31T16:42:31;32.63;;;26.33;;
2720;SDS011;1368;49.484;11.112;2022-10-31T16:44:58;35.50;;;23.70;;
2720;SDS011;1368;49.484;11.112;2022-10-31T16:47:24;34.40;;;22.57;;
2720;SDS011;1368;49.484;11.112;2022-10-31T16:49:50;29.83;;;22.77;;
2720;SDS011;1368;49.484;11.112;2022-10-31T16:52:16;41.07;;;26.47;;
2720;SDS011;1368;49.484;11.112;2022-10-31T16:54:42;32.07;;;25.77;;
2720;SDS011;1368;49.484;11.112;2022-10-31T16:57:13;37.40;;;27.23;;
2720;SDS011;1368;49.484;11.112;2022-10-31T16:59:41;33.83;;;26.57;;
2720;SDS011;1368;49.484;11.112;2022-10-31T17:02:09;32.10;;;27.47;;
2720;SDS011;1368;49.484;11.112;2022-10-31T17:04:39;36.60;;;28.67;;
2720;SDS011;1368;49.484;11.112;2022-10-31T17:07:04;37.07;;;28.23;;
2720;SDS011;1368;49.484;11.112;2022-10-31T17:09:30;33.80;;;28.33;;
2720;SDS011;1368;49.484;11.112;2022-10-31T17:11:55;35.30;;;28.90;;